Elliot Chaparral Reserve, California Weather observations

Data are for 10 minute period ending at time listed.
 Day   Time   Solar   Ave.   Ave.  Ave.  Vector  Max.   Baro.   Total    
  of    of     Rad.   Air    Rel.  Wind   Wind   Wind  Press.  Precip.   
Year   Day            Temp.  Hum.  Speed  Dir.   Gust                    
2015   (PST)  Kw/m2    F      %     mph   deg.    mph    mb.     in.     
-------------------------------------------------------------------------
  31    0:00   0.00   54.5    92    5.1   111     6.0   982.8    0.00 
  31    0:10   0.00   54.5    92    5.0   110     5.8   982.6    0.00 
  31    0:20   0.00   54.7    92    4.9   132     5.6   982.6    0.00 
  31    0:30   0.00   54.5    92    4.8   121     5.3   982.5    0.00 
  31    0:40   0.00   54.2    92    4.4   117     5.4   982.5    0.00 
  31    0:50   0.00   54.0    91    3.6   111     5.0   982.5    0.00 
  31    1:00   0.00   54.1    91    2.6   120     4.0   982.5    0.00 
  31    1:10   0.00   54.4    91    2.5   129     3.5   982.5    0.00 
  31    1:20   0.00   54.6    90    2.7   114     4.2   982.4    0.00 
  31    1:30   0.00   54.6    90    3.3   118     4.7   982.4    0.00 
  31    1:40   0.00   54.3    90    4.3   115     6.1   982.2    0.00 
  31    1:50   0.00   53.9    91    5.4   117     6.5   982.1    0.00 
  31    2:00   0.00   53.7    91    5.9   121     6.7   981.9    0.00 
  31    2:10   0.00   53.4    91    6.1   115     7.0   981.9    0.00 
  31    2:20   0.00   53.2    91    6.2   115     7.2   981.9    0.00 
  31    2:30   0.00   53.1    91    7.0   116     8.3   981.9    0.00 
  31    2:40   0.00   53.2    91    6.0   115     7.7   981.8    0.00 
  31    2:50   0.00   52.8    91    7.7   115     9.2   981.8    0.00 
  31    3:00   0.00   52.6    91    9.7   111    11.8   981.7    0.00 
  31    3:10   0.00   52.9    91    9.3   108    11.8   981.6    0.00 
  31    3:20   0.00   53.1    91    9.8   107    11.8   981.5    0.00 
  31    3:30   0.00   53.1    91    8.9   106    11.1   981.4    0.00 
  31    3:40   0.00   52.9    92    9.5   109    11.7   981.3    0.00 
  31    3:50   0.00   52.7    92    9.3   101    10.7   981.3    0.00 
  31    4:00   0.00   52.5    92    9.4   101    10.8   981.3    0.00 
  31    4:10   0.00   52.8    92    8.5   104    11.0   981.2    0.00 
  31    4:20   0.00   52.7    92    9.0   107    11.0   981.2    0.00 
  31    4:30   0.00   52.8    92    7.7    97     9.7   981.3    0.00 
  31    4:40   0.00   52.7    92    7.9    92     9.4   981.2    0.00 
  31    4:50   0.00   52.5    92    8.0    87     9.1   981.2    0.00 
  31    5:00   0.00   52.3    92    7.7    87     8.6   981.1    0.00 
  31    5:10   0.00   52.1    93    8.0    93     8.7   981.0    0.00 
  31    5:20   0.00   52.0    93    7.8    93     8.6   981.0    0.00 
  31    5:30   0.00   51.7    93    7.3    92     8.0   981.1    0.00 
  31    5:40   0.00   51.5    93    6.6    82     7.5   981.2    0.00 
  31    5:50   0.00   51.7    93    5.8    80     7.3   981.3    0.00 
  31    6:00   0.00   52.1    93    5.0    77     5.8   981.3    0.00 
  31    6:10   0.00   52.4    93    4.0    70     5.2   981.5    0.00 
  31    6:20   0.00   53.0    92    3.4    72     5.0   981.7    0.00 
  31    6:30   0.00   53.6    90    3.0    85     4.6   981.9    0.00 
  31    6:40   0.00   54.0    88    1.8   124     4.2   982.1    0.00 
  31    6:50   0.00   53.7    88    1.6   237     2.8   982.3    0.00 
  31    7:00   0.00   53.5    89    1.3   208     2.1   982.5    0.00 
  31    7:10   0.00   53.6    89    2.4   142     3.1   982.6    0.00 
  31    7:20   0.01   53.6    89    3.1   139     4.0   982.6    0.00 
  31    7:30   0.02   54.0    88    2.5   154     4.3   982.7    0.00 
  31    7:40   0.02   54.3    87    2.6   158     3.8   982.8    0.00 
  31    7:50   0.01   54.5    86    1.8   143     2.4   982.9    0.00 
  31    8:00   0.04   54.8    86    1.3   133     2.0   983.0    0.00 
  31    8:10   0.07   55.2    86    1.8   139     3.0   983.1    0.00 
  31    8:20   0.08   55.7    85    2.6   125     3.3   983.2    0.00 
  31    8:30   0.08   55.6    84    2.1   129     4.0   983.4    0.00 
  31    8:40   0.10   55.9    84    2.0   138     3.9   983.5    0.00 
  31    8:50   0.17   56.2    83    3.1   132     4.4   983.7    0.00 
  31    9:00   0.15   56.8    81    4.2   132     6.7   983.7    0.00 
  31    9:10   0.12   56.4    82    4.6   126     6.4   983.8    0.00 
  31    9:20   0.09   56.4    82    3.2   124     4.6   984.2    0.00 
  31    9:30   0.06   56.3    82    5.0   130     6.6   984.3    0.00 
  31    9:40   0.07   56.1    85    3.5   126     4.9   984.3    0.00 
  31    9:50   0.15   56.6    87    1.4   144     3.8   984.3    0.01 
  31   10:00   0.11   57.6    85    0.2   260     1.2   984.3    0.00 
  31   10:10   0.10   57.9    84    0.5   231     1.7   984.4    0.00 
  31   10:20   0.13   57.8    86    1.7   217     2.6   984.4    0.00 
  31   10:30   0.36   58.5    84    2.0   265     3.6   984.3    0.00 
  31   10:40   0.79   60.6    80    2.4   222     5.6   984.3    0.00 
  31   10:50   0.67   61.5    77    5.0   293     9.1   984.3    0.00 
  31   11:00   0.08   59.3    79    5.6   316     8.6   984.4    0.00 
  31   11:10   0.10   58.4    81    5.0   310     6.8   984.4    0.00 
  31   11:20   0.48   59.4    79    3.2   266     5.8   984.1    0.00 
  31   11:30   0.54   61.3    73    3.5   250     7.1   983.9    0.00 
  31   11:40   0.43   61.9    72    6.1   295    10.5   983.8    0.00 
  31   11:50   0.33   61.2    71    6.2   310     9.3   983.8    0.00 
  31   12:00   0.30   61.2    70    4.0   296     6.7   983.7    0.00 
  31   12:10   0.34   62.6    67    2.2   290     5.8   983.5    0.00 
  31   12:20   0.68   64.5    64    5.5   272    10.0   983.5    0.00 
  31   12:30   0.24   62.7    67    6.2   277     9.3   983.4    0.00 
  31   12:40   0.24   62.2    69    9.4   300    14.3   983.2    0.00 
  31   12:50   0.19   61.2    70    9.5   304    12.3   983.1    0.00 
  31   13:00   0.50   62.0    68    6.2   299    10.6   982.9    0.00 
  31   13:10   0.54   64.0    64    7.3   300    11.1   982.8    0.00 
  31   13:20   0.58   64.3    63    8.3   297    11.7   982.6    0.00 
  31   13:30   0.51   65.3    60    7.5   299    17.7   982.5    0.00 
  31   13:40   0.23   63.5    64   10.8   301    15.2   982.5    0.00 
  31   13:50   0.34   62.7    66   11.3   305    18.7   982.6    0.00 
  31   14:00   0.55   64.7    62   10.0   321    15.3   982.6    0.00 
  31   14:10   0.54   65.6    60    8.5   316    12.7   982.7    0.00 
  31   14:20   0.54   65.1    60    9.3   302    13.4   982.6    0.00 
  31   14:30   0.50   65.7    59   10.3   307    14.2   982.5    0.00 
  31   14:40   0.44   65.6    59   11.2   308    15.3   982.3    0.00 
  31   14:50   0.41   65.2    60    9.7   302    13.7   982.3    0.00 
  31   15:00   0.38   65.0    60   10.6   303    15.3   982.3    0.00 
  31   15:10   0.34   65.0    61   13.0   288    18.0   982.3    0.00 
  31   15:20   0.33   64.3    62   12.4   295    18.3   982.4    0.00 

Return to Elliot Chaparral Reserve graphs page.


Western Regional Climate Center,wrcc@dri.edu